Holmes Reef, Australia
Current Conditions -  °F | °C
As of 5:00 AM on Tuesday 23 Dec 2014 (Local Time) from YBCS Reporting Station
Few Clouds Few Clouds  
Wind Chill: 77°   Ceiling: Unl
Heat Index: 79°   Visibility: 6mi
Dew Point: 68°   Wind: 8mph
Humidity: 74%   Direction: 160°SSE
Pressure: 29.83"   Gusts: NA
Location:  16.47°S, 147.87°E
Report Text: YBCS 221900Z 16007KT 9999 FEW025 25/20 Q1010 NOSIG
Loading
Personal Weather Stations






























Interactive Weather Map New forecast layout! Learn more

10-Day Weather Forecast

Advertisements
Track Severe Weather on mobile